Time,TemperatureF,DewpointF,PressureIn,WindDirection,WindDirectionDegrees,WindSpeedMPH,WindSpeedGustMPH,Humidity,HourlyPrecipIn,Conditions,Clouds,dailyrainin,SolarRadiationWatts/m^2,SoftwareType,DateUTC
2013-08-24 00:03:00,73.8,66.9,30.06,South,175,5.0,10.0,79,0.00,,,0.00,0.0,meteohub,2013-08-24 05:03:00,
2013-08-24 00:10:00,73.8,66.9,30.06,SSE,161,3.0,8.0,79,0.00,,,0.00,0.0,meteohub,2013-08-24 05:10:00,
2013-08-24 00:16:00,73.4,66.6,30.06,South,186,2.0,8.0,79,0.00,,,0.00,0.0,meteohub,2013-08-24 05:16:00,
2013-08-24 00:22:00,73.2,66.7,30.06,SE,146,0.0,8.0,80,0.00,,,0.00,0.0,meteohub,2013-08-24 05:22:00,
2013-08-24 00:28:00,73.0,66.6,30.06,SSW,194,0.0,8.0,80,0.00,,,0.00,0.0,meteohub,2013-08-24 05:28:00,
2013-08-24 00:34:00,72.9,66.7,30.06,SSE,159,4.0,8.0,81,0.00,,,0.00,0.0,meteohub,2013-08-24 05:34:00,
2013-08-24 00:41:00,72.7,66.6,30.06,SSE,166,2.0,10.0,81,0.00,,,0.00,0.0,meteohub,2013-08-24 05:41:00,
2013-08-24 00:47:00,72.3,66.2,30.06,South,175,4.0,10.0,81,0.00,,,0.00,0.0,meteohub,2013-08-24 05:47:00,
2013-08-24 00:53:00,72.3,66.2,30.06,SE,135,2.0,7.0,81,0.00,,,0.00,0.0,meteohub,2013-08-24 05:53:00,
2013-08-24 00:59:00,72.1,66.0,30.06,SE,136,4.0,7.0,81,0.00,,,0.00,0.0,meteohub,2013-08-24 05:59:00,
2013-08-24 01:05:00,72.1,66.0,30.06,SSE,157,6.0,7.0,81,0.00,,,0.00,0.0,meteohub,2013-08-24 06:05:00,
2013-08-24 01:12:00,72.0,65.8,30.06,SSE,166,4.0,7.0,81,0.00,,,0.00,0.0,meteohub,2013-08-24 06:12:00,
2013-08-24 01:17:00,72.0,65.8,30.06,SSE,167,2.0,7.0,81,0.00,,,0.00,0.0,meteohub,2013-08-24 06:17:00,
2013-08-24 01:22:00,72.0,65.8,30.06,SSE,168,4.0,8.0,81,0.00,,,0.00,0.0,meteohub,2013-08-24 06:22:00,
2013-08-24 01:28:00,71.8,65.7,30.06,South,188,2.0,8.0,81,0.00,,,0.00,0.0,meteohub,2013-08-24 06:28:00,
2013-08-24 01:34:00,71.6,65.8,30.06,SSE,148,3.0,9.0,82,0.00,,,0.00,0.0,meteohub,2013-08-24 06:34:00,
2013-08-24 01:40:00,71.6,65.8,30.06,SE,134,5.0,10.0,82,0.00,,,0.00,0.0,meteohub,2013-08-24 06:40:00,
2013-08-24 01:47:00,71.4,65.7,30.06,SSE,154,2.0,10.0,82,0.00,,,0.00,0.0,meteohub,2013-08-24 06:47:00,
2013-08-24 01:53:00,71.4,65.7,30.06,South,176,5.0,10.0,82,0.00,,,0.00,0.0,meteohub,2013-08-24 06:53:00,
2013-08-24 01:59:00,71.2,65.5,30.06,SSE,165,2.0,10.0,82,0.00,,,0.00,0.0,meteohub,2013-08-24 06:59:00,
2013-08-24 02:05:00,71.1,65.3,30.06,SE,144,4.0,8.0,82,0.00,,,0.00,0.0,meteohub,2013-08-24 07:05:00,
2013-08-24 02:11:00,71.2,65.5,30.06,South,178,2.0,8.0,82,0.00,,,0.00,0.0,meteohub,2013-08-24 07:11:00,
2013-08-24 02:17:00,71.2,65.5,30.07,SSW,198,3.0,9.0,82,0.00,,,0.00,0.0,meteohub,2013-08-24 07:17:00,
2013-08-24 02:22:00,71.2,65.5,30.07,ESE,117,4.0,9.0,82,0.00,,,0.00,0.0,meteohub,2013-08-24 07:22:00,
2013-08-24 02:28:00,71.1,65.3,30.07,South,172,1.0,9.0,82,0.00,,,0.00,0.0,meteohub,2013-08-24 07:28:00,
2013-08-24 02:34:00,70.9,65.1,30.07,South,180,2.0,9.0,82,0.00,,,0.00,0.0,meteohub,2013-08-24 07:34:00,
2013-08-24 02:40:00,70.9,65.5,30.07,South,183,7.0,8.0,83,0.00,,,0.00,0.0,meteohub,2013-08-24 07:40:00,
2013-08-24 02:46:00,70.9,65.5,30.07,South,173,5.0,7.0,83,0.00,,,0.00,0.0,meteohub,2013-08-24 07:46:00,
2013-08-24 02:53:00,70.9,65.5,30.07,SSE,159,4.0,7.0,83,0.00,,,0.00,0.0,meteohub,2013-08-24 07:53:00,
2013-08-24 02:59:00,70.9,65.5,30.07,South,174,2.0,7.0,83,0.00,,,0.00,0.0,meteohub,2013-08-24 07:59:00,
2013-08-24 03:05:00,70.9,65.5,30.07,South,173,6.0,7.0,83,0.00,,,0.00,0.0,meteohub,2013-08-24 08:05:00,
2013-08-24 03:11:00,70.9,65.5,30.07,South,189,0.0,8.0,83,0.00,,,0.00,0.0,meteohub,2013-08-24 08:11:00,
2013-08-24 03:17:00,70.9,65.5,30.07,SSE,167,2.0,8.0,83,0.00,,,0.00,0.0,meteohub,2013-08-24 08:17:00,
2013-08-24 03:23:00,70.7,65.3,30.07,SSE,162,2.0,7.0,83,0.00,,,0.00,0.0,meteohub,2013-08-24 08:23:00,
2013-08-24 03:30:00,70.5,65.1,30.07,SSW,192,7.0,7.0,83,0.00,,,0.00,0.0,meteohub,2013-08-24 08:30:00,
2013-08-24 03:36:00,70.5,65.1,30.07,SSE,161,5.0,7.0,83,0.00,,,0.00,0.0,meteohub,2013-08-24 08:36:00,
2013-08-24 03:42:00,70.7,64.9,30.08,South,171,3.0,7.0,82,0.00,,,0.00,0.0,meteohub,2013-08-24 08:42:00,
2013-08-24 03:48:00,70.9,65.1,30.08,SSE,159,0.0,7.0,82,0.00,,,0.00,0.0,meteohub,2013-08-24 08:48:00,
2013-08-24 03:54:00,70.9,65.1,30.08,SSE,157,4.0,12.0,82,0.00,,,0.00,0.0,meteohub,2013-08-24 08:54:00,
2013-08-24 04:00:00,70.7,64.9,30.08,South,186,0.0,7.0,82,0.00,,,0.00,0.0,meteohub,2013-08-24 09:00:00,
2013-08-24 04:07:00,70.7,64.9,30.08,SSE,163,2.0,7.0,82,0.00,,,0.00,0.0,meteohub,2013-08-24 09:07:00,
2013-08-24 04:13:00,70.5,64.8,30.08,South,179,2.0,7.0,82,0.00,,,0.00,0.0,meteohub,2013-08-24 09:13:00,
2013-08-24 04:19:00,70.5,64.8,30.08,South,178,7.0,7.0,82,0.00,,,0.00,0.0,meteohub,2013-08-24 09:19:00,
2013-08-24 04:25:00,70.7,64.9,30.08,South,171,4.0,7.0,82,0.00,,,0.00,0.0,meteohub,2013-08-24 09:25:00,
2013-08-24 04:31:00,70.7,64.9,30.08,South,171,6.0,9.0,82,0.00,,,0.00,0.0,meteohub,2013-08-24 09:31:00,
2013-08-24 04:38:00,70.7,64.6,30.08,SSE,159,3.0,10.0,81,0.00,,,0.00,0.0,meteohub,2013-08-24 09:38:00,
2013-08-24 04:44:00,70.7,64.6,30.08,South,171,3.0,10.0,81,0.00,,,0.00,0.0,meteohub,2013-08-24 09:44:00,
2013-08-24 04:50:00,70.7,64.6,30.07,SSW,194,0.0,10.0,81,0.00,,,0.00,0.0,meteohub,2013-08-24 09:50:00,
2013-08-24 04:56:00,70.5,64.4,30.07,SSE,167,1.0,10.0,81,0.00,,,0.00,0.0,meteohub,2013-08-24 09:56:00,
2013-08-24 05:02:00,70.5,64.4,30.07,South,169,4.0,10.0,81,0.00,,,0.00,0.0,meteohub,2013-08-24 10:02:00,
2013-08-24 05:07:00,70.3,64.2,30.07,South,176,6.0,8.0,81,0.00,,,0.00,0.0,meteohub,2013-08-24 10:07:00,
2013-08-24 05:13:00,70.3,64.2,30.07,South,175,2.0,8.0,81,0.00,,,0.00,0.0,meteohub,2013-08-24 10:13:00,
2013-08-24 05:19:00,70.3,64.2,30.07,South,177,1.0,8.0,81,0.00,,,0.00,0.0,meteohub,2013-08-24 10:19:00,
2013-08-24 05:25:00,70.3,64.2,30.07,SSE,149,4.0,7.0,81,0.00,,,0.00,0.0,meteohub,2013-08-24 10:25:00,
2013-08-24 05:31:00,70.3,64.2,30.07,SSE,155,2.0,7.0,81,0.00,,,0.00,0.0,meteohub,2013-08-24 10:31:00,
2013-08-24 05:38:00,70.3,64.2,30.07,ESE,121,1.0,7.0,81,0.00,,,0.00,0.0,meteohub,2013-08-24 10:38:00,
2013-08-24 05:44:00,70.2,64.0,30.07,SSE,154,4.0,8.0,81,0.00,,,0.00,0.0,meteohub,2013-08-24 10:44:00,
2013-08-24 05:50:00,70.2,64.4,30.07,South,173,4.0,8.0,82,0.00,,,0.00,0.0,meteohub,2013-08-24 10:50:00,
2013-08-24 05:56:00,70.2,64.4,30.07,SSE,157,6.0,8.0,82,0.00,,,0.00,0.0,meteohub,2013-08-24 10:56:00,
2013-08-24 06:02:00,70.2,64.4,30.08,SSE,166,5.0,10.0,82,0.00,,,0.00,0.0,meteohub,2013-08-24 11:02:00,
2013-08-24 06:07:00,70.2,64.4,30.07,South,174,3.0,10.0,82,0.00,,,0.00,0.0,meteohub,2013-08-24 11:07:00,
2013-08-24 06:13:00,70.0,64.2,30.08,SSE,153,2.0,10.0,82,0.00,,,0.00,0.0,meteohub,2013-08-24 11:13:00,
2013-08-24 06:19:00,70.2,64.4,30.08,South,182,3.0,10.0,82,0.00,,,0.00,0.0,meteohub,2013-08-24 11:19:00,
2013-08-24 06:25:00,70.0,64.2,30.08,ESE,116,4.0,10.0,82,0.00,,,0.00,5.0,meteohub,2013-08-24 11:25:00,
2013-08-24 06:31:00,70.0,64.2,30.09,SE,136,5.0,10.0,82,0.00,,,0.00,5.0,meteohub,2013-08-24 11:31:00,
2013-08-24 06:38:00,70.0,64.2,30.09,SSE,150,2.0,10.0,82,0.00,,,0.00,9.0,meteohub,2013-08-24 11:38:00,
2013-08-24 06:44:00,70.0,64.2,30.09,SE,128,1.0,10.0,82,0.00,,,0.00,12.0,meteohub,2013-08-24 11:44:00,
2013-08-24 06:50:00,70.2,64.4,30.09,SSE,166,2.0,11.0,82,0.00,,,0.00,18.0,meteohub,2013-08-24 11:50:00,
2013-08-24 06:56:00,70.0,64.2,30.09,SSE,162,2.0,11.0,82,0.00,,,0.00,25.0,meteohub,2013-08-24 11:56:00,
2013-08-24 07:02:00,70.0,64.2,30.09,SE,139,4.0,11.0,82,0.00,,,0.00,30.0,meteohub,2013-08-24 12:02:00,
2013-08-24 07:07:00,70.2,64.4,30.08,SSW,193,4.0,11.0,82,0.00,,,0.00,40.0,meteohub,2013-08-24 12:07:00,
2013-08-24 07:13:00,70.2,64.8,30.09,South,177,2.0,11.0,83,0.00,,,0.00,62.0,meteohub,2013-08-24 12:13:00,
2013-08-24 07:19:00,70.2,64.8,30.09,SSE,157,4.0,10.0,83,0.00,,,0.00,67.0,meteohub,2013-08-24 12:19:00,
2013-08-24 07:25:00,70.2,64.8,30.08,SSE,161,4.0,10.0,83,0.00,,,0.00,69.0,meteohub,2013-08-24 12:25:00,
2013-08-24 07:32:00,70.3,64.9,30.08,South,177,5.0,10.0,83,0.00,,,0.00,56.0,meteohub,2013-08-24 12:32:00,
2013-08-24 07:38:00,70.3,64.9,30.09,SE,144,2.0,11.0,83,0.00,,,0.00,69.0,meteohub,2013-08-24 12:38:00,
2013-08-24 07:44:00,70.5,65.1,30.09,SSE,155,3.0,11.0,83,0.00,,,0.00,65.0,meteohub,2013-08-24 12:44:00,
2013-08-24 07:50:00,70.5,65.1,30.08,South,170,6.0,11.0,83,0.00,,,0.00,65.0,meteohub,2013-08-24 12:50:00,
2013-08-24 07:57:00,70.5,65.1,30.08,SE,139,0.0,12.0,83,0.00,,,0.00,77.0,meteohub,2013-08-24 12:57:00,
2013-08-24 08:02:00,70.5,65.1,30.08,South,175,4.0,12.0,83,0.00,,,0.00,91.0,meteohub,2013-08-24 13:02:00,
2013-08-24 08:07:00,70.9,65.5,30.08,SSE,165,1.0,12.0,83,0.00,,,0.00,142.0,meteohub,2013-08-24 13:07:00,
2013-08-24 08:13:00,71.1,65.3,30.08,SSE,154,3.0,9.0,82,0.00,,,0.00,178.0,meteohub,2013-08-24 13:13:00,
2013-08-24 08:19:00,71.4,65.7,30.08,South,173,0.0,9.0,82,0.00,,,0.00,213.0,meteohub,2013-08-24 13:19:00,
2013-08-24 08:25:00,71.8,65.7,30.08,SSW,200,5.0,9.0,81,0.00,,,0.00,230.0,meteohub,2013-08-24 13:25:00,
2013-08-24 08:32:00,72.0,65.8,30.08,South,176,3.0,11.0,81,0.00,,,0.00,241.0,meteohub,2013-08-24 13:32:00,
2013-08-24 08:38:00,72.1,66.0,30.08,SE,135,3.0,11.0,81,0.00,,,0.00,279.0,meteohub,2013-08-24 13:38:00,
2013-08-24 08:44:00,72.5,66.0,30.07,SSE,159,3.0,11.0,80,0.00,,,0.00,297.0,meteohub,2013-08-24 13:44:00,
2013-08-24 08:50:00,72.9,66.4,30.07,SSE,153,4.0,11.0,80,0.00,,,0.00,318.0,meteohub,2013-08-24 13:50:00,
2013-08-24 08:56:00,73.2,66.7,30.07,South,175,6.0,11.0,80,0.00,,,0.00,334.0,meteohub,2013-08-24 13:56:00,
2013-08-24 09:02:00,73.6,66.7,30.07,SSE,156,5.0,11.0,79,0.00,,,0.00,350.0,meteohub,2013-08-24 14:02:00,
2013-08-24 09:07:00,73.6,66.7,30.07,SSE,168,3.0,11.0,79,0.00,,,0.00,367.0,meteohub,2013-08-24 14:07:00,
2013-08-24 09:13:00,73.9,67.1,30.07,SE,138,8.0,11.0,79,0.00,,,0.00,378.0,meteohub,2013-08-24 14:13:00,
2013-08-24 09:19:00,74.1,67.1,30.06,SE,142,10.0,11.0,79,0.00,,,0.00,388.0,meteohub,2013-08-24 14:19:00,
2013-08-24 09:25:00,74.7,67.3,30.06,South,178,3.0,11.0,78,0.00,,,0.00,408.0,meteohub,2013-08-24 14:25:00,
2013-08-24 09:32:00,75.0,67.3,30.06,South,176,4.0,13.0,77,0.00,,,0.00,441.0,meteohub,2013-08-24 14:32:00,
2013-08-24 09:38:00,75.6,67.8,30.06,SE,134,7.0,13.0,77,0.00,,,0.00,483.0,meteohub,2013-08-24 14:38:00,
2013-08-24 09:44:00,75.7,68.0,30.06,SE,134,3.0,13.0,77,0.00,,,0.00,471.0,meteohub,2013-08-24 14:44:00,
2013-08-24 09:50:00,75.9,68.2,30.06,South,178,3.0,11.0,77,0.00,,,0.00,482.0,meteohub,2013-08-24 14:50:00,
2013-08-24 09:56:00,76.3,68.2,30.05,South,174,2.0,11.0,76,0.00,,,0.00,555.0,meteohub,2013-08-24 14:56:00,
2013-08-24 10:02:00,76.5,68.4,30.05,SSE,166,3.0,11.0,76,0.00,,,0.00,534.0,meteohub,2013-08-24 15:02:00,
2013-08-24 10:07:00,76.6,68.5,30.05,South,191,4.0,11.0,76,0.00,,,0.00,308.0,meteohub,2013-08-24 15:07:00,
2013-08-24 10:13:00,77.0,68.5,30.05,South,178,3.0,10.0,75,0.00,,,0.00,388.0,meteohub,2013-08-24 15:13:00,
2013-08-24 10:19:00,77.2,69.1,30.05,SE,144,6.0,10.0,76,0.00,,,0.00,197.0,meteohub,2013-08-24 15:19:00,
2013-08-24 10:26:00,77.5,68.9,30.05,SSW,198,2.0,10.0,75,0.00,,,0.00,587.0,meteohub,2013-08-24 15:26:00,
2013-08-24 10:32:00,77.9,69.3,30.04,South,185,3.0,12.0,75,0.00,,,0.00,582.0,meteohub,2013-08-24 15:32:00,
2013-08-24 10:38:00,78.4,69.4,30.04,SSE,167,3.0,12.0,74,0.00,,,0.00,548.0,meteohub,2013-08-24 15:38:00,
2013-08-24 10:44:00,78.6,70.0,30.04,SSW,202,7.0,12.0,75,0.00,,,0.00,612.0,meteohub,2013-08-24 15:44:00,
2013-08-24 10:50:00,79.2,69.8,30.03,SE,124,3.0,12.0,73,0.00,,,0.00,619.0,meteohub,2013-08-24 15:50:00,
2013-08-24 10:57:00,79.9,70.5,30.03,South,175,2.0,12.0,73,0.00,,,0.00,643.0,meteohub,2013-08-24 15:57:00,
2013-08-24 11:02:00,80.2,70.3,30.03,SSE,160,4.0,12.0,72,0.00,,,0.00,661.0,meteohub,2013-08-24 16:02:00,
2013-08-24 11:07:00,80.8,70.5,30.02,SE,132,2.0,12.0,71,0.00,,,0.00,675.0,meteohub,2013-08-24 16:07:00,
2013-08-24 11:13:00,81.1,70.3,30.02,SSW,194,10.0,11.0,70,0.00,,,0.00,700.0,meteohub,2013-08-24 16:13:00,
2013-08-24 11:19:00,81.3,71.1,30.02,SSE,165,4.0,11.0,71,0.00,,,0.00,712.0,meteohub,2013-08-24 16:19:00,
2013-08-24 11:26:00,81.9,71.1,30.01,SW,221,6.0,11.0,70,0.00,,,0.00,719.0,meteohub,2013-08-24 16:26:00,
2013-08-24 11:32:00,82.0,70.9,30.01,South,184,7.0,13.0,69,0.00,,,0.00,645.0,meteohub,2013-08-24 16:32:00,
2013-08-24 11:38:00,82.2,71.1,30.01,ESE,121,10.0,13.0,69,0.00,,,0.00,612.0,meteohub,2013-08-24 16:38:00,
2013-08-24 11:44:00,82.6,71.4,30.01,SSE,164,5.0,13.0,69,0.00,,,0.00,708.0,meteohub,2013-08-24 16:44:00,
2013-08-24 11:50:00,82.9,71.2,30.00,ESE,112,11.0,18.0,68,0.00,,,0.00,689.0,meteohub,2013-08-24 16:50:00,
2013-08-24 11:57:00,83.3,71.2,30.00,SE,143,11.0,18.0,67,0.00,,,0.00,647.0,meteohub,2013-08-24 16:57:00,
2013-08-24 12:03:00,82.9,71.2,30.00,South,186,9.0,18.0,68,0.00,,,0.00,526.0,meteohub,2013-08-24 17:03:00,
2013-08-24 12:09:00,82.8,71.6,29.99,South,184,3.0,18.0,69,0.00,,,0.00,619.0,meteohub,2013-08-24 17:09:00,
2013-08-24 12:15:00,82.9,71.8,29.99,South,175,8.0,18.0,69,0.00,,,0.00,728.0,meteohub,2013-08-24 17:15:00,
2013-08-24 12:22:00,83.1,71.4,29.98,South,174,10.0,18.0,68,0.00,,,0.00,707.0,meteohub,2013-08-24 17:22:00,
2013-08-24 12:28:00,83.7,72.0,29.98,South,184,6.0,18.0,68,0.00,,,0.00,779.0,meteohub,2013-08-24 17:28:00,
2013-08-24 12:34:00,84.4,71.8,29.98,South,171,3.0,18.0,66,0.00,,,0.00,594.0,meteohub,2013-08-24 17:34:00,
2013-08-24 12:40:00,84.4,71.2,29.97,South,191,8.0,16.0,65,0.00,,,0.00,673.0,meteohub,2013-08-24 17:40:00,
2013-08-24 12:46:00,84.6,72.0,29.97,SSE,159,5.0,16.0,66,0.00,,,0.00,615.0,meteohub,2013-08-24 17:46:00,
2013-08-24 12:53:00,84.6,72.0,29.97,SSW,192,10.0,16.0,66,0.00,,,0.00,575.0,meteohub,2013-08-24 17:53:00,
2013-08-24 12:59:00,84.0,72.0,29.97,South,173,5.0,19.0,67,0.00,,,0.00,587.0,meteohub,2013-08-24 17:59:00,
2013-08-24 13:05:00,84.6,72.0,29.97,South,190,10.0,19.0,66,0.00,,,0.00,812.0,meteohub,2013-08-24 18:05:00,
2013-08-24 13:11:00,84.9,71.8,29.97,SE,142,9.0,19.0,65,0.00,,,0.00,729.0,meteohub,2013-08-24 18:11:00,
2013-08-24 13:17:00,85.3,72.7,29.97,South,171,3.0,21.0,66,0.00,,,0.00,849.0,meteohub,2013-08-24 18:17:00,
2013-08-24 13:24:00,85.3,72.1,29.97,ESE,119,8.0,21.0,65,0.00,,,0.00,773.0,meteohub,2013-08-24 18:24:00,
2013-08-24 13:30:00,85.5,72.9,29.97,South,187,6.0,21.0,66,0.00,,,0.00,694.0,meteohub,2013-08-24 18:30:00,
2013-08-24 13:36:00,85.5,72.9,29.97,South,182,8.0,21.0,66,0.00,,,0.00,717.0,meteohub,2013-08-24 18:36:00,
2013-08-24 13:42:00,85.6,72.5,29.97,South,169,1.0,17.0,65,0.00,,,0.00,895.0,meteohub,2013-08-24 18:42:00,
2013-08-24 13:48:00,85.6,72.5,29.97,South,180,12.0,17.0,65,0.00,,,0.00,383.0,meteohub,2013-08-24 18:48:00,
2013-08-24 13:54:00,85.5,72.9,29.97,SSE,157,4.0,17.0,66,0.00,,,0.00,346.0,meteohub,2013-08-24 18:54:00,
2013-08-24 14:01:00,85.6,73.0,29.97,SSE,164,6.0,18.0,66,0.00,,,0.00,320.0,meteohub,2013-08-24 19:01:00,
2013-08-24 14:07:00,85.3,72.7,29.96,SSE,157,7.0,18.0,66,0.00,,,0.00,461.0,meteohub,2013-08-24 19:07:00,
2013-08-24 14:13:00,85.8,73.2,29.96,South,184,4.0,13.0,66,0.00,,,0.00,926.0,meteohub,2013-08-24 19:13:00,
2013-08-24 14:19:00,86.4,72.7,29.97,South,184,15.0,15.0,64,0.00,,,0.00,940.0,meteohub,2013-08-24 19:19:00,
2013-08-24 14:25:00,86.5,72.5,29.96,SW,217,7.0,15.0,63,0.00,,,0.00,840.0,meteohub,2013-08-24 19:25:00,
2013-08-24 14:32:00,86.9,72.3,29.96,South,178,9.0,19.0,62,0.00,,,0.00,248.0,meteohub,2013-08-24 19:32:00,
2013-08-24 14:38:00,86.7,72.7,29.96,South,180,6.0,19.0,63,0.00,,,0.00,784.0,meteohub,2013-08-24 19:38:00,
2013-08-24 14:44:00,87.3,72.7,29.96,SSW,204,4.0,19.0,62,0.00,,,0.00,779.0,meteohub,2013-08-24 19:44:00,
2013-08-24 14:50:00,87.4,72.9,29.96,South,185,10.0,17.0,62,0.00,,,0.00,780.0,meteohub,2013-08-24 19:50:00,
2013-08-24 14:56:00,87.1,72.5,29.96,South,171,3.0,19.0,62,0.00,,,0.00,872.0,meteohub,2013-08-24 19:56:00,
2013-08-24 15:02:00,87.3,72.7,29.96,SE,136,2.0,19.0,62,0.00,,,0.00,835.0,meteohub,2013-08-24 20:02:00,
2013-08-24 15:07:00,86.9,72.9,29.96,South,175,3.0,19.0,63,0.00,,,0.00,290.0,meteohub,2013-08-24 20:07:00,
2013-08-24 15:13:00,87.1,72.9,29.95,South,179,16.0,18.0,63,0.00,,,0.00,436.0,meteohub,2013-08-24 20:13:00,
2013-08-24 15:19:00,86.5,72.9,29.95,South,180,5.0,18.0,64,0.00,,,0.00,533.0,meteohub,2013-08-24 20:19:00,
2013-08-24 15:25:00,86.9,73.2,29.95,SSE,149,4.0,18.0,64,0.00,,,0.00,738.0,meteohub,2013-08-24 20:25:00,
2013-08-24 15:31:00,87.1,73.4,29.95,South,176,4.0,18.0,64,0.00,,,0.00,738.0,meteohub,2013-08-24 20:31:00,
2013-08-24 15:38:00,87.6,73.4,29.94,SSW,207,6.0,18.0,63,0.00,,,0.00,691.0,meteohub,2013-08-24 20:38:00,
2013-08-24 15:44:00,87.6,74.3,29.94,South,186,8.0,18.0,65,0.00,,,0.00,719.0,meteohub,2013-08-24 20:44:00,
2013-08-24 15:50:00,88.0,74.3,29.94,South,175,6.0,18.0,64,0.00,,,0.00,663.0,meteohub,2013-08-24 20:50:00,
2013-08-24 15:56:00,87.4,73.8,29.94,South,177,8.0,18.0,64,0.00,,,0.00,673.0,meteohub,2013-08-24 20:56:00,
2013-08-24 16:02:00,87.3,73.6,29.94,SSW,210,4.0,16.0,64,0.00,,,0.00,677.0,meteohub,2013-08-24 21:02:00,
2013-08-24 16:09:00,87.4,74.3,29.94,South,179,11.0,16.0,65,0.00,,,0.00,643.0,meteohub,2013-08-24 21:09:00,
2013-08-24 16:15:00,87.4,74.3,29.94,SSE,153,4.0,16.0,65,0.00,,,0.00,633.0,meteohub,2013-08-24 21:15:00,
2013-08-24 16:21:00,87.3,74.1,29.94,SSE,147,4.0,16.0,65,0.00,,,0.00,613.0,meteohub,2013-08-24 21:21:00,
2013-08-24 16:27:00,87.1,73.9,29.94,SSE,159,7.0,16.0,65,0.00,,,0.00,225.0,meteohub,2013-08-24 21:27:00,
2013-08-24 16:33:00,87.1,73.9,29.94,SSE,157,3.0,16.0,65,0.00,,,0.00,566.0,meteohub,2013-08-24 21:33:00,
2013-08-24 16:39:00,86.9,73.2,29.94,SSE,161,7.0,17.0,64,0.00,,,0.00,279.0,meteohub,2013-08-24 21:39:00,
2013-08-24 16:46:00,87.1,73.4,29.93,South,188,11.0,17.0,64,0.00,,,0.00,192.0,meteohub,2013-08-24 21:46:00,
2013-08-24 16:52:00,86.9,73.2,29.94,SSE,150,3.0,18.0,64,0.00,,,0.00,527.0,meteohub,2013-08-24 21:52:00,
2013-08-24 16:58:00,86.7,73.0,29.94,SE,134,12.0,18.0,64,0.00,,,0.00,199.0,meteohub,2013-08-24 21:58:00,
2013-08-24 17:04:00,86.7,72.1,29.93,South,169,16.0,20.0,62,0.00,,,0.00,397.0,meteohub,2013-08-24 22:04:00,
2013-08-24 17:10:00,86.7,71.6,29.93,SW,228,24.0,24.0,61,0.00,,,0.00,336.0,meteohub,2013-08-24 22:10:00,
2013-08-24 17:16:00,86.5,72.0,29.94,South,180,6.0,24.0,62,0.00,,,0.00,332.0,meteohub,2013-08-24 22:16:00,
2013-08-24 17:23:00,86.4,72.3,29.93,SSW,193,9.0,24.0,63,0.00,,,0.00,260.0,meteohub,2013-08-24 22:23:00,
2013-08-24 17:29:00,86.0,72.0,29.93,ESE,123,5.0,22.0,63,0.00,,,0.00,309.0,meteohub,2013-08-24 22:29:00,
2013-08-24 17:35:00,85.8,72.1,29.93,SW,219,4.0,22.0,64,0.00,,,0.00,241.0,meteohub,2013-08-24 22:35:00,
2013-08-24 17:41:00,85.6,71.6,29.93,SSW,197,7.0,20.0,63,0.00,,,0.00,214.0,meteohub,2013-08-24 22:41:00,
2013-08-24 17:47:00,85.5,71.4,29.93,SE,126,4.0,23.0,63,0.00,,,0.00,142.0,meteohub,2013-08-24 22:47:00,
2013-08-24 17:54:00,85.1,71.6,29.93,South,175,6.0,23.0,64,0.00,,,0.00,149.0,meteohub,2013-08-24 22:54:00,
2013-08-24 18:00:00,84.9,71.8,29.92,ESE,105,3.0,19.0,65,0.00,,,0.00,162.0,meteohub,2013-08-24 23:00:00,
2013-08-24 18:06:00,84.7,72.1,29.92,South,179,7.0,19.0,66,0.00,,,0.00,156.0,meteohub,2013-08-24 23:06:00,
2013-08-24 18:12:00,84.7,72.1,29.92,South,173,5.0,17.0,66,0.00,,,0.00,127.0,meteohub,2013-08-24 23:12:00,
2013-08-24 18:18:00,84.4,72.1,29.92,SSW,198,7.0,17.0,67,0.00,,,0.00,130.0,meteohub,2013-08-24 23:18:00,
2013-08-24 18:25:00,84.4,72.1,29.92,SSW,202,5.0,22.0,67,0.00,,,0.00,109.0,meteohub,2013-08-24 23:25:00,
2013-08-24 18:31:00,84.2,72.0,29.91,SSE,165,16.0,22.0,67,0.00,,,0.00,192.0,meteohub,2013-08-24 23:31:00,
2013-08-24 18:37:00,84.4,72.1,29.91,SSE,164,11.0,22.0,67,0.00,,,0.00,197.0,meteohub,2013-08-24 23:37:00,
2013-08-24 18:43:00,84.4,72.1,29.91,SSE,163,15.0,17.0,67,0.00,,,0.00,162.0,meteohub,2013-08-24 23:43:00,
2013-08-24 18:49:00,84.0,72.0,29.91,SE,136,10.0,17.0,67,0.00,,,0.00,95.0,meteohub,2013-08-24 23:49:00,
2013-08-24 18:56:00,83.8,71.8,29.91,SSE,166,4.0,17.0,67,0.00,,,0.00,90.0,meteohub,2013-08-24 23:56:00,
2013-08-24 19:02:00,83.8,72.1,29.91,South,182,23.0,23.0,68,0.00,,,0.00,69.0,meteohub,2013-08-25 00:02:00,
2013-08-24 19:08:00,83.7,72.0,29.91,South,185,10.0,20.0,68,0.00,,,0.00,53.0,meteohub,2013-08-25 00:08:00,
2013-08-24 19:14:00,83.5,71.8,29.91,South,187,4.0,23.0,68,0.00,,,0.00,49.0,meteohub,2013-08-25 00:14:00,
2013-08-24 19:20:00,83.1,72.0,29.91,South,183,11.0,18.0,69,0.00,,,0.00,42.0,meteohub,2013-08-25 00:20:00,
2013-08-24 19:27:00,83.1,72.0,29.91,SE,143,16.0,18.0,69,0.00,,,0.00,42.0,meteohub,2013-08-25 00:27:00,
2013-08-24 19:32:00,83.1,72.0,29.91,SW,214,5.0,18.0,69,0.00,,,0.00,33.0,meteohub,2013-08-25 00:32:00,
2013-08-24 19:37:00,82.9,72.1,29.91,ESE,111,2.0,18.0,70,0.00,,,0.00,25.0,meteohub,2013-08-25 00:37:00,
2013-08-24 19:43:00,82.8,72.0,29.91,South,182,11.0,18.0,70,0.00,,,0.00,16.0,meteohub,2013-08-25 00:43:00,
2013-08-24 19:49:00,82.8,72.3,29.92,SSE,148,12.0,20.0,71,0.00,,,0.00,12.0,meteohub,2013-08-25 00:49:00,
2013-08-24 19:55:00,82.6,72.1,29.91,South,190,5.0,20.0,71,0.00,,,0.00,9.0,meteohub,2013-08-25 00:55:00,
2013-08-24 20:01:00,82.4,72.0,29.92,South,173,4.0,20.0,71,0.00,,,0.00,5.0,meteohub,2013-08-25 01:01:00,
2013-08-24 20:08:00,82.2,72.3,29.92,SSE,153,5.0,22.0,72,0.00,,,0.00,0.0,meteohub,2013-08-25 01:08:00,
2013-08-24 20:14:00,82.0,72.1,29.92,SSE,159,4.0,22.0,72,0.00,,,0.00,0.0,meteohub,2013-08-25 01:14:00,
2013-08-24 20:20:00,81.9,72.3,29.92,SE,142,3.0,21.0,73,0.00,,,0.00,0.0,meteohub,2013-08-25 01:20:00,
2013-08-24 20:26:00,81.9,72.3,29.92,South,174,15.0,21.0,73,0.00,,,0.00,0.0,meteohub,2013-08-25 01:26:00,
2013-08-24 20:32:00,81.9,72.3,29.92,SSW,202,5.0,21.0,73,0.00,,,0.00,0.0,meteohub,2013-08-25 01:32:00,
2013-08-24 20:39:00,81.7,72.5,29.92,SSE,159,9.0,18.0,74,0.00,,,0.00,0.0,meteohub,2013-08-25 01:39:00,
2013-08-24 20:45:00,81.5,72.3,29.92,SSE,150,8.0,18.0,74,0.00,,,0.00,0.0,meteohub,2013-08-25 01:45:00,
2013-08-24 20:51:00,81.3,72.3,29.92,South,170,9.0,15.0,74,0.00,,,0.00,0.0,meteohub,2013-08-25 01:51:00,
2013-08-24 20:57:00,81.1,72.1,29.93,South,171,6.0,17.0,74,0.00,,,0.00,0.0,meteohub,2013-08-25 01:57:00,
2013-08-24 21:03:00,81.1,72.5,29.92,SSW,205,18.0,18.0,75,0.00,,,0.00,0.0,meteohub,2013-08-25 02:03:00,
2013-08-24 21:10:00,81.0,72.3,29.93,South,180,3.0,18.0,75,0.00,,,0.00,0.0,meteohub,2013-08-25 02:10:00,
2013-08-24 21:16:00,81.0,72.3,29.92,SSW,209,10.0,18.0,75,0.00,,,0.00,0.0,meteohub,2013-08-25 02:16:00,
2013-08-24 21:22:00,80.8,72.1,29.93,SSW,197,11.0,17.0,75,0.00,,,0.00,0.0,meteohub,2013-08-25 02:22:00,
2013-08-24 21:28:00,80.8,72.1,29.93,SSE,163,3.0,17.0,75,0.00,,,0.00,0.0,meteohub,2013-08-25 02:28:00,
2013-08-24 21:34:00,80.8,72.1,29.93,South,170,8.0,14.0,75,0.00,,,0.00,0.0,meteohub,2013-08-25 02:34:00,
2013-08-24 21:40:00,80.6,72.3,29.93,SSE,154,8.0,14.0,76,0.00,,,0.00,0.0,meteohub,2013-08-25 02:40:00,
2013-08-24 21:47:00,80.4,72.1,29.93,SSW,194,3.0,14.0,76,0.00,,,0.00,0.0,meteohub,2013-08-25 02:47:00,
2013-08-24 21:53:00,80.4,72.1,29.93,South,190,3.0,14.0,76,0.00,,,0.00,0.0,meteohub,2013-08-25 02:53:00,
2013-08-24 21:59:00,80.2,72.0,29.93,SE,133,7.0,17.0,76,0.00,,,0.00,0.0,meteohub,2013-08-25 02:59:00,
2013-08-24 22:05:00,80.2,72.0,29.93,SE,140,4.0,17.0,76,0.00,,,0.00,0.0,meteohub,2013-08-25 03:05:00,
2013-08-24 22:11:00,80.2,72.3,29.93,SSE,168,3.0,14.0,77,0.00,,,0.00,0.0,meteohub,2013-08-25 03:11:00,
2013-08-24 22:17:00,80.1,72.1,29.93,South,172,6.0,14.0,77,0.00,,,0.00,0.0,meteohub,2013-08-25 03:17:00,
2013-08-24 22:22:00,80.1,72.1,29.93,SSE,164,7.0,16.0,77,0.00,,,0.00,0.0,meteohub,2013-08-25 03:22:00,
2013-08-24 22:28:00,80.1,72.1,29.94,South,182,3.0,16.0,77,0.00,,,0.00,0.0,meteohub,2013-08-25 03:28:00,
2013-08-24 22:34:00,80.1,72.1,29.93,SSE,167,2.0,16.0,77,0.00,,,0.00,0.0,meteohub,2013-08-25 03:34:00,
2013-08-24 22:40:00,79.9,72.0,29.93,SW,228,6.0,12.0,77,0.00,,,0.00,0.0,meteohub,2013-08-25 03:40:00,
2013-08-24 22:46:00,79.9,72.0,29.93,SSE,149,6.0,12.0,77,0.00,,,0.00,0.0,meteohub,2013-08-25 03:46:00,
2013-08-24 22:53:00,79.9,72.0,29.93,SE,142,7.0,12.0,77,0.00,,,0.00,0.0,meteohub,2013-08-25 03:53:00,
2013-08-24 22:59:00,79.7,71.8,29.93,South,177,6.0,14.0,77,0.00,,,0.00,0.0,meteohub,2013-08-25 03:59:00,
2013-08-24 23:01:00,79.7,71.8,29.93,South,190,1.0,14.0,77,0.00,,,0.00,0.0,meteohub,2013-08-25 04:01:00,
2013-08-24 23:02:00,79.7,71.8,29.93,South,182,5.0,14.0,77,0.00,,,0.00,0.0,meteohub,2013-08-25 04:02:00,
2013-08-24 23:03:00,79.7,71.8,29.94,South,183,5.0,14.0,77,0.00,,,0.00,0.0,meteohub,2013-08-25 04:03:00,
2013-08-24 23:07:00,79.9,72.0,29.94,SE,131,1.0,14.0,77,0.00,,,0.00,0.0,meteohub,2013-08-25 04:07:00,
2013-08-24 23:09:00,79.9,72.0,29.94,South,182,4.0,14.0,77,0.00,,,0.00,0.0,meteohub,2013-08-25 04:09:00,
2013-08-24 23:15:00,79.9,72.0,29.94,SE,132,2.0,14.0,77,0.00,,,0.00,0.0,meteohub,2013-08-25 04:15:00,
2013-08-24 23:21:00,80.1,71.8,29.94,South,172,4.0,17.0,76,0.00,,,0.00,0.0,meteohub,2013-08-25 04:21:00,
2013-08-24 23:28:00,80.1,71.8,29.93,South,176,2.0,17.0,76,0.00,,,0.00,0.0,meteohub,2013-08-25 04:28:00,
2013-08-24 23:34:00,80.2,72.0,29.94,South,188,4.0,13.0,76,0.00,,,0.00,0.0,meteohub,2013-08-25 04:34:00,
2013-08-24 23:40:00,80.4,71.8,29.94,South,182,4.0,16.0,75,0.00,,,0.00,0.0,meteohub,2013-08-25 04:40:00,
2013-08-24 23:46:00,80.8,72.1,29.94,South,188,4.0,16.0,75,0.00,,,0.00,0.0,meteohub,2013-08-25 04:46:00,
2013-08-24 23:52:00,80.6,72.0,29.94,South,174,11.0,16.0,75,0.00,,,0.00,0.0,meteohub,2013-08-25 04:52:00,
2013-08-24 23:59:00,80.4,71.8,29.94,South,184,5.0,13.0,75,0.00,,,0.00,0.0,meteohub,2013-08-25 04:59:00,